Time;durP1;ratioP1;P1;durP2;ratioP2;P2;SDS_P1;SDS_P2;PMS_P1;PMS_P2;Temp;Humidity;BMP_temperature;BMP_pressure;BME280_temperature;BME280_humidity;BME280_pressure;Samples;Min_cycle;Max_cycle;Signal;HPM_P1;HPM_P2
2022/09/25 00:01:36;;;;;;;6.63;4.82;;;12.20;99.90;;;;;;6175678;23;20005;-88
2022/09/25 00:04:02;;;;;;;8.57;5.07;;;12.10;99.90;;;;;;6177080;23;20032;-87
2022/09/25 00:06:29;;;;;;;6.90;5.10;;;12.10;99.90;;;;;;6176178;23;20051;-88
2022/09/25 00:08:56;;;;;;;6.88;4.20;;;12.10;99.90;;;;;;6176495;22;20096;-87
2022/09/25 00:11:26;;;;;;;8.25;5.55;;;12.10;99.90;;;;;;6176321;22;20001;-88
2022/09/25 00:13:52;;;;;;;9.45;5.25;;;12.00;99.90;;;;;;6176586;22;20082;-88
2022/09/25 00:16:24;;;;;;;6.65;4.80;;;12.00;99.90;;;;;;6176875;22;19997;-87
2022/09/25 00:21:35;;;;;;;9.40;4.28;;;12.00;99.90;;;;;;6176163;23;20055;-87
2022/09/25 00:24:04;;;;;;;5.55;4.00;;;12.00;99.90;;;;;;6176766;22;20438;-88
2022/09/25 00:26:32;;;;;;;5.20;4.28;;;12.00;99.90;;;;;;6176754;23;20035;-88
2022/09/25 00:29:01;;;;;;;6.57;4.18;;;12.00;99.90;;;;;;6177204;23;20001;-89
2022/09/25 00:31:28;;;;;;;7.93;4.93;;;12.00;99.90;;;;;;6176447;23;20430;-87
2022/09/25 00:33:59;;;;;;;10.63;4.90;;;12.10;99.90;;;;;;6150616;22;20009;-88
2022/09/25 00:36:25;;;;;;;6.45;4.72;;;12.00;99.90;;;;;;6176727;22;20017;-89
2022/09/25 00:38:53;;;;;;;5.43;3.90;;;12.00;99.90;;;;;;6177471;23;20009;-84
2022/09/25 00:41:20;;;;;;;8.68;5.18;;;12.00;99.90;;;;;;6176719;23;20001;-89
2022/09/25 00:43:49;;;;;;;5.25;4.18;;;12.00;99.90;;;;;;6175533;23;20080;-88
2022/09/25 00:46:35;;;;;;;6.55;3.55;;;12.00;99.90;;;;;;6176255;23;20004;-88
2022/09/25 00:49:08;;;;;;;5.80;4.20;;;12.00;99.90;;;;;;6176118;23;20009;-88
2022/09/25 00:51:51;;;;;;;5.35;3.90;;;12.00;99.90;;;;;;6176877;22;20051;-84
2022/09/25 00:54:25;;;;;;;4.53;3.50;;;12.00;99.90;;;;;;6177508;23;20047;-87
2022/09/25 00:56:53;;;;;;;6.28;3.88;;;12.00;99.90;;;;;;6176826;22;20076;-87
2022/09/25 00:59:26;;;;;;;4.70;4.22;;;12.00;99.90;;;;;;6176446;22;20105;-86
2022/09/25 01:01:52;;;;;;;6.35;4.30;;;12.00;99.90;;;;;;6176214;23;20012;-86
2022/09/25 01:04:18;;;;;;;6.05;4.35;;;12.00;99.90;;;;;;6175562;23;20005;-87
2022/09/25 01:06:44;;;;;;;7.38;4.15;;;12.00;99.90;;;;;;6176195;22;20015;-89
2022/09/25 01:09:10;;;;;;;6.78;3.83;;;12.00;99.90;;;;;;6175547;23;20096;-88
2022/09/25 01:11:36;;;;;;;5.32;4.07;;;12.00;99.90;;;;;;6176583;23;20062;-83
2022/09/25 01:14:05;;;;;;;6.80;4.60;;;12.10;99.90;;;;;;6177252;23;20013;-88
2022/09/25 01:16:37;;;;;;;5.60;4.35;;;12.10;99.90;;;;;;6176341;22;20458;-86
2022/09/25 01:19:09;;;;;;;4.65;3.92;;;12.00;99.90;;;;;;6176642;23;20021;-88
2022/09/25 01:22:02;;;;;;;5.38;4.30;;;12.00;99.90;;;;;;6175731;23;20008;-87
2022/09/25 01:24:58;;;;;;;5.63;4.07;;;12.10;99.90;;;;;;6177128;23;20151;-85
2022/09/25 01:27:32;;;;;;;5.60;4.30;;;12.10;99.90;;;;;;6178069;22;19997;-88
2022/09/25 01:30:09;;;;;;;6.60;4.80;;;12.10;99.90;;;;;;6176217;23;20126;-89
2022/09/25 01:32:58;;;;;;;6.03;4.45;;;12.00;99.90;;;;;;6176901;23;20016;-89
2022/09/25 01:35:50;;;;;;;5.35;4.32;;;12.00;99.90;;;;;;6175684;23;20009;-89
2022/09/25 01:38:44;;;;;;;4.50;3.90;;;11.90;99.90;;;;;;6177626;22;20047;-88
2022/09/25 01:41:18;;;;;;;7.40;5.07;;;11.80;99.90;;;;;;6175709;22;20005;-87
2022/09/25 01:43:49;;;;;;;8.52;5.03;;;11.80;99.90;;;;;;6176428;23;20024;-87
2022/09/25 01:46:18;;;;;;;5.50;4.57;;;11.70;99.90;;;;;;6176524;22;19994;-87
2022/09/25 01:48:51;;;;;;;6.82;4.65;;;11.70;99.90;;;;;;6177460;23;20005;-89
2022/09/25 01:51:28;;;;;;;5.82;4.75;;;11.70;99.90;;;;;;6175345;23;20422;-89
2022/09/25 01:54:06;;;;;;;6.15;4.32;;;11.60;99.90;;;;;;6177309;23;20002;-87
2022/09/25 01:56:37;;;;;;;4.68;3.45;;;11.60;99.90;;;;;;6175748;23;20372;-88
2022/09/25 01:59:10;;;;;;;5.22;4.15;;;11.60;99.90;;;;;;6176494;23;20365;-88
2022/09/25 02:01:40;;;;;;;6.05;4.30;;;11.60;99.90;;;;;;6176043;23;20001;-88
2022/09/25 02:04:21;;;;;;;6.95;4.90;;;11.60;99.90;;;;;;6176067;23;20445;-86
2022/09/25 02:06:49;;;;;;;5.90;4.82;;;11.60;99.90;;;;;;6175724;22;20016;-87
2022/09/25 02:09:37;;;;;;;7.65;4.57;;;11.60;99.90;;;;;;6176859;23;20070;-88
2022/09/25 02:12:17;;;;;;;6.93;5.03;;;11.60;99.90;;;;;;6175861;22;20307;-87
2022/09/25 02:14:58;;;;;;;6.57;5.40;;;11.50;99.90;;;;;;6175604;23;20008;-89
2022/09/25 02:20:31;;;;;;;7.50;5.60;;;11.50;99.90;;;;;;6176043;23;20132;-87
2022/09/25 02:23:09;;;;;;;6.55;4.72;;;11.40;99.90;;;;;;6176323;23;20001;-86
2022/09/25 02:25:39;;;;;;;7.20;4.60;;;11.40;99.90;;;;;;6175864;22;20005;-88
2022/09/25 02:28:05;;;;;;;6.75;4.68;;;11.40;99.90;;;;;;6177098;23;20001;-89
2022/09/25 02:30:30;;;;;;;8.73;4.70;;;11.40;99.90;;;;;;6175340;22;20071;-88
2022/09/25 02:32:56;;;;;;;8.75;4.95;;;11.40;99.90;;;;;;6176932;23;20036;-88
2022/09/25 02:35:24;;;;;;;6.03;4.82;;;11.30;99.90;;;;;;6175160;23;20012;-87
2022/09/25 02:37:53;;;;;;;7.47;5.32;;;11.40;99.90;;;;;;6177092;23;20337;-88
2022/09/25 02:40:27;;;;;;;9.32;5.63;;;11.30;99.90;;;;;;6176069;22;20001;-87
2022/09/25 02:43:06;;;;;;;7.22;5.30;;;11.30;99.90;;;;;;6175046;23;20053;-87
2022/09/25 02:46:02;;;;;;;8.27;5.55;;;11.30;99.90;;;;;;6176317;22;20005;-88
2022/09/25 02:48:55;;;;;;;9.15;6.50;;;11.30;99.90;;;;;;6176538;23;20012;-88
2022/09/25 02:52:03;;;;;;;10.38;6.07;;;11.30;99.90;;;;;;6175707;23;20012;-85
2022/09/25 02:54:47;;;;;;;8.98;7.03;;;11.40;99.90;;;;;;6190832;23;20031;-88
2022/09/25 02:57:44;;;;;;;12.27;7.85;;;11.40;99.90;;;;;;6175849;22;20084;-88
2022/09/25 03:00:12;;;;;;;13.00;8.40;;;11.50;99.90;;;;;;6174742;22;20423;-88
2022/09/25 03:02:39;;;;;;;13.77;8.73;;;11.50;99.90;;;;;;6177521;23;20005;-88
2022/09/25 03:05:09;;;;;;;14.10;8.73;;;11.50;99.90;;;;;;6179906;23;20009;-88
2022/09/25 03:08:36;;;;;;;13.68;9.45;;;11.50;99.90;;;;;;6180175;22;20108;-88
2022/09/25 03:10:23;;;;;;;10.05;6.82;;;11.40;99.90;;;;;;6177880;22;20021;-87
2022/09/25 03:12:51;;;;;;;10.90;6.95;;;11.40;99.90;;;;;;6179882;23;20011;-86
2022/09/25 03:15:17;;;;;;;9.50;6.18;;;11.40;99.90;;;;;;6178259;23;20015;-88
2022/09/25 03:17:42;;;;;;;13.20;7.35;;;11.40;99.90;;;;;;6180097;23;20088;-88
2022/09/25 03:20:08;;;;;;;10.73;7.60;;;11.30;99.90;;;;;;6179280;23;20405;-87
2022/09/25 03:22:35;;;;;;;11.95;6.85;;;11.30;99.90;;;;;;6179051;23;20420;-85
2022/09/25 03:25:00;;;;;;;10.00;7.00;;;11.30;99.90;;;;;;6178858;22;20318;-88
2022/09/25 03:27:27;;;;;;;13.35;6.88;;;11.30;99.90;;;;;;6178414;23;20349;-88
2022/09/25 03:29:54;;;;;;;10.63;6.93;;;11.30;99.90;;;;;;6179017;22;20009;-84
2022/09/25 03:32:20;;;;;;;11.02;7.25;;;11.30;99.90;;;;;;6176868;23;20005;-86
2022/09/25 03:34:46;;;;;;;11.88;7.57;;;11.20;99.90;;;;;;6177996;23;20483;-88
2022/09/25 03:37:12;;;;;;;9.20;6.82;;;11.20;99.90;;;;;;6177776;23;20001;-87
2022/09/25 03:39:37;;;;;;;10.60;6.65;;;11.20;99.90;;;;;;6179934;22;20091;-88
2022/09/25 03:42:04;;;;;;;10.07;7.32;;;11.20;99.90;;;;;;6177126;23;20005;-87
2022/09/25 03:44:30;;;;;;;15.43;7.15;;;11.20;99.90;;;;;;6177889;23;20084;-88
2022/09/25 03:46:55;;;;;;;10.77;8.00;;;11.20;99.90;;;;;;6177315;23;20041;-87
2022/09/25 03:49:23;;;;;;;13.23;8.45;;;11.20;99.90;;;;;;6178603;23;19997;-84
2022/09/25 03:51:48;;;;;;;10.45;7.60;;;11.20;99.90;;;;;;6177501;23;20066;-88
2022/09/25 03:54:17;;;;;;;9.18;6.60;;;11.20;99.90;;;;;;6179061;23;20005;-85
2022/09/25 03:56:43;;;;;;;10.18;7.47;;;11.20;99.90;;;;;;6178550;23;20008;-86
2022/09/25 03:59:08;;;;;;;12.48;7.40;;;11.20;99.90;;;;;;6178730;23;20009;-86
2022/09/25 04:01:35;;;;;;;12.63;8.15;;;11.10;99.90;;;;;;6177115;23;20040;-87
2022/09/25 04:04:02;;;;;;;16.80;7.80;;;11.20;99.90;;;;;;6177484;23;20032;-88
2022/09/25 04:06:28;;;;;;;12.93;7.85;;;11.20;99.90;;;;;;6177881;22;20012;-87
2022/09/25 04:08:54;;;;;;;9.70;7.22;;;11.20;99.90;;;;;;6179477;23;20322;-86
2022/09/25 04:11:23;;;;;;;9.27;6.47;;;11.20;99.90;;;;;;6178199;23;20001;-89
2022/09/25 04:13:48;;;;;;;9.65;6.15;;;11.20;99.90;;;;;;6178524;22;20371;-88
2022/09/25 04:16:15;;;;;;;9.90;6.47;;;11.20;99.90;;;;;;6176212;23;20039;-88
2022/09/25 04:18:41;;;;;;;6.47;5.45;;;11.30;99.90;;;;;;6176583;22;20033;-89
2022/09/25 04:21:08;;;;;;;7.32;5.55;;;11.30;99.90;;;;;;6176434;22;20070;-87
2022/09/25 04:23:35;;;;;;;10.98;7.57;;;11.30;99.90;;;;;;6177106;22;20415;-86
2022/09/25 04:26:00;;;;;;;7.35;6.00;;;11.40;99.90;;;;;;6175445;23;20008;-87
2022/09/25 04:28:30;;;;;;;5.80;5.13;;;11.40;99.90;;;;;;6177546;23;20001;-87
2022/09/25 04:30:55;;;;;;;8.25;6.22;;;11.40;99.90;;;;;;6176270;22;20039;-85
2022/09/25 04:36:05;;;;;;;8.52;6.88;;;11.40;99.90;;;;;;6175814;23;20491;-88
2022/09/25 04:38:31;;;;;;;8.20;6.15;;;11.40;99.90;;;;;;6175852;22;20017;-88
2022/09/25 04:40:59;;;;;;;9.77;6.05;;;11.40;99.90;;;;;;6177129;23;20485;-83
2022/09/25 04:43:28;;;;;;;8.90;6.55;;;11.50;99.90;;;;;;6177897;22;20380;-87
2022/09/25 04:45:53;;;;;;;9.05;6.35;;;11.40;99.90;;;;;;6176992;22;21020;-86
2022/09/25 04:48:18;;;;;;;10.60;6.93;;;11.50;99.90;;;;;;6177252;23;20034;-87
2022/09/25 04:50:50;;;;;;;9.25;6.25;;;11.40;99.90;;;;;;6177363;23;20437;-87
2022/09/25 04:53:16;;;;;;;8.98;5.93;;;11.50;99.90;;;;;;6177805;22;20002;-87
2022/09/25 04:55:41;;;;;;;9.82;6.22;;;11.40;99.90;;;;;;6176195;23;20006;-88
2022/09/25 04:58:09;;;;;;;14.68;9.05;;;11.50;99.90;;;;;;6177361;23;20020;-85
2022/09/25 05:00:37;;;;;;;10.15;7.68;;;11.50;99.90;;;;;;6177568;23;20005;-88
2022/09/25 05:03:03;;;;;;;15.07;8.95;;;11.40;99.90;;;;;;6151818;22;20009;-85
2022/09/25 05:05:30;;;;;;;11.55;7.78;;;11.40;99.90;;;;;;6177093;23;20083;-86
2022/09/25 05:08:00;;;;;;;9.27;7.10;;;11.40;99.90;;;;;;6177100;23;20017;-88
2022/09/25 05:10:29;;;;;;;10.27;7.05;;;11.40;99.90;;;;;;6176433;23;20012;-89
2022/09/25 05:13:00;;;;;;;10.38;6.32;;;11.40;99.90;;;;;;6175964;23;20001;-89
2022/09/25 05:15:27;;;;;;;9.77;7.63;;;11.30;99.90;;;;;;6176293;23;20076;-88
2022/09/25 05:18:04;;;;;;;10.05;7.32;;;11.40;99.90;;;;;;6176968;22;20042;-86
2022/09/25 05:20:30;;;;;;;8.75;6.90;;;11.40;99.90;;;;;;6177839;23;20327;-86
2022/09/25 05:22:57;;;;;;;8.70;6.82;;;11.40;99.90;;;;;;6176214;23;20390;-87
2022/09/25 05:25:25;;;;;;;8.23;6.47;;;11.40;99.90;;;;;;6176934;22;20133;-85
2022/09/25 05:27:57;;;;;;;8.23;6.50;;;11.40;99.90;;;;;;6175690;23;19997;-86
2022/09/25 05:30:23;;;;;;;10.07;6.93;;;11.40;99.90;;;;;;6177572;22;20365;-88
2022/09/25 05:32:52;;;;;;;8.35;6.40;;;11.40;99.90;;;;;;6176753;23;20079;-88
2022/09/25 05:35:21;;;;;;;7.72;6.03;;;11.40;99.90;;;;;;6176217;23;20001;-87
2022/09/25 05:37:47;;;;;;;9.65;7.07;;;11.40;99.90;;;;;;6171433;22;20017;-88
2022/09/25 05:40:19;;;;;;;15.27;7.85;;;11.40;99.90;;;;;;6172921;23;20090;-87
2022/09/25 05:42:44;;;;;;;11.90;8.35;;;11.50;99.90;;;;;;6173947;23;20005;-89
2022/09/25 05:45:11;;;;;;;10.90;7.65;;;11.40;99.90;;;;;;6176695;22;20001;-91
2022/09/25 05:47:37;;;;;;;8.95;6.30;;;11.40;99.90;;;;;;6176762;23;20001;-89
2022/09/25 05:50:04;;;;;;;11.30;6.63;;;11.40;99.90;;;;;;6176993;23;20001;-91
2022/09/25 05:52:30;;;;;;;8.93;6.93;;;11.40;99.90;;;;;;6175927;22;20009;-91
2022/09/25 05:54:56;;;;;;;12.05;6.95;;;11.40;99.90;;;;;;6177588;23;20002;-91
2022/09/25 05:57:22;;;;;;;9.45;6.75;;;11.40;99.90;;;;;;6176037;23;20020;-91
2022/09/25 05:59:48;;;;;;;9.20;6.80;;;11.40;99.90;;;;;;6177371;22;20110;-88
2022/09/25 06:02:15;;;;;;;11.50;7.95;;;11.40;99.90;;;;;;6172424;23;20453;-91
2022/09/25 06:04:40;;;;;;;10.65;8.13;;;11.40;99.90;;;;;;6173942;23;20163;-91
2022/09/25 06:07:08;;;;;;;10.60;7.20;;;11.30;99.90;;;;;;6150306;23;20032;-90
2022/09/25 06:09:37;;;;;;;14.07;8.75;;;11.30;99.90;;;;;;6177186;23;20009;-91
2022/09/25 06:12:03;;;;;;;11.15;7.05;;;11.30;99.90;;;;;;6175420;23;20438;-91
2022/09/25 06:14:29;;;;;;;10.00;7.13;;;11.30;99.90;;;;;;6175982;23;20028;-91
2022/09/25 06:16:54;;;;;;;10.63;7.43;;;11.40;99.90;;;;;;6175481;23;20025;-90
2022/09/25 06:19:20;;;;;;;8.85;6.63;;;11.40;99.90;;;;;;6176344;23;20040;-92
2022/09/25 06:21:46;;;;;;;12.50;7.85;;;11.40;99.90;;;;;;6175931;23;20005;-88
2022/09/25 06:24:12;;;;;;;10.93;8.05;;;11.40;99.90;;;;;;6177107;23;20005;-88
2022/09/25 06:26:38;;;;;;;11.80;8.35;;;11.40;99.90;;;;;;6175265;23;20009;-90
2022/09/25 06:29:06;;;;;;;15.57;10.32;;;11.40;99.90;;;;;;6177040;22;19998;-91
2022/09/25 06:31:32;;;;;;;11.80;8.27;;;11.40;99.90;;;;;;6175008;22;20012;-90
2022/09/25 06:33:58;;;;;;;10.27;8.25;;;11.40;99.90;;;;;;6176181;23;20005;-90
2022/09/25 06:36:24;;;;;;;12.00;8.32;;;11.50;99.90;;;;;;6175939;23;20001;-91
2022/09/25 06:38:53;;;;;;;10.95;8.20;;;11.50;99.90;;;;;;6177019;23;20017;-91
2022/09/25 06:41:19;;;;;;;11.90;7.63;;;11.50;99.90;;;;;;6176178;23;20080;-89
2022/09/25 06:43:48;;;;;;;13.63;9.65;;;11.60;99.90;;;;;;6177374;23;20033;-90
2022/09/25 06:46:13;;;;;;;13.93;9.00;;;11.60;99.90;;;;;;6174368;23;20042;-89
2022/09/25 06:48:39;;;;;;;15.43;10.20;;;11.70;99.90;;;;;;6175544;23;20409;-93
2022/09/25 06:51:07;;;;;;;12.38;8.93;;;11.70;99.90;;;;;;6174717;23;20001;-89
2022/09/25 06:53:33;;;;;;;11.30;9.27;;;11.70;99.90;;;;;;6175362;23;20052;-92
2022/09/25 06:56:01;;;;;;;13.43;10.63;;;11.80;99.90;;;;;;6176698;23;20415;-91
2022/09/25 06:58:29;;;;;;;12.48;10.15;;;11.90;99.90;;;;;;6175996;23;20009;-91
2022/09/25 07:00:55;;;;;;;17.65;12.32;;;11.90;99.90;;;;;;6176113;23;20003;-91
2022/09/25 07:06:08;;;;;;;14.50;10.43;;;12.00;99.90;;;;;;6175199;23;20009;-92
2022/09/25 07:08:34;;;;;;;16.13;11.25;;;12.10;99.90;;;;;;6149473;23;20017;-89
2022/09/25 07:11:00;;;;;;;15.63;11.05;;;12.10;99.90;;;;;;6176055;23;20005;-87
2022/09/25 07:13:28;;;;;;;20.17;14.48;;;12.10;99.90;;;;;;6175181;23;20025;-92
2022/09/25 07:15:57;;;;;;;17.83;13.80;;;12.20;99.90;;;;;;6176806;23;20002;-90
2022/09/25 07:18:23;;;;;;;20.65;14.80;;;12.30;99.90;;;;;;6174940;22;20025;-89
2022/09/25 07:20:50;;;;;;;16.88;13.25;;;12.30;99.90;;;;;;6176306;23;20419;-92
2022/09/25 07:23:21;;;;;;;17.67;13.05;;;12.40;99.90;;;;;;6175133;23;20096;-93
2022/09/25 07:25:48;;;;;;;18.30;11.88;;;12.40;99.90;;;;;;6176401;23;19997;-91
2022/09/25 07:28:14;;;;;;;16.92;10.85;;;12.50;99.90;;;;;;6175226;23;20051;-91
2022/09/25 07:30:41;;;;;;;17.08;11.45;;;12.60;99.90;;;;;;6175754;22;20001;-90
2022/09/25 07:33:07;;;;;;;18.45;12.38;;;12.70;99.90;;;;;;6175051;23;20001;-92
2022/09/25 07:35:34;;;;;;;18.55;12.68;;;12.70;99.90;;;;;;6176629;22;20455;-90
2022/09/25 07:37:59;;;;;;;17.25;11.57;;;12.70;99.90;;;;;;6175240;22;20039;-91
2022/09/25 07:40:27;;;;;;;21.02;12.77;;;12.70;99.90;;;;;;6175763;23;20005;-92
2022/09/25 07:42:58;;;;;;;18.67;12.32;;;12.80;99.90;;;;;;6176240;23;20064;-91
2022/09/25 07:45:24;;;;;;;14.90;10.57;;;12.80;99.90;;;;;;6175168;23;20058;-93
2022/09/25 07:47:49;;;;;;;15.10;10.30;;;12.90;99.90;;;;;;6173498;23;20006;-91
2022/09/25 07:50:15;;;;;;;14.40;9.82;;;12.90;99.90;;;;;;6176072;23;20032;-92
2022/09/25 07:52:41;;;;;;;14.43;8.43;;;13.00;99.90;;;;;;6175828;23;20008;-87
2022/09/25 07:55:07;;;;;;;14.25;8.07;;;13.00;99.90;;;;;;6151340;23;20001;-92
2022/09/25 07:57:33;;;;;;;12.40;8.10;;;13.00;99.90;;;;;;6150240;23;20043;-91
2022/09/25 07:59:58;;;;;;;13.50;7.75;;;13.00;99.90;;;;;;6177104;22;19998;-93
2022/09/25 08:02:24;;;;;;;12.27;7.95;;;13.20;99.90;;;;;;6176172;23;20392;-91
2022/09/25 08:04:49;;;;;;;11.30;6.70;;;13.20;99.90;;;;;;6178203;23;20005;-93
2022/09/25 08:07:15;;;;;;;12.77;7.15;;;13.20;99.90;;;;;;6176588;23;20372;-90
2022/09/25 08:09:41;;;;;;;14.23;6.72;;;13.10;99.90;;;;;;6177904;23;20452;-92
2022/09/25 08:12:10;;;;;;;12.73;8.00;;;13.10;99.90;;;;;;6176774;23;20017;-92
2022/09/25 08:14:37;;;;;;;15.13;9.43;;;13.10;99.90;;;;;;6178381;22;20004;-92
2022/09/25 08:17:02;;;;;;;19.88;9.70;;;13.10;99.90;;;;;;6176488;23;20040;-92
2022/09/25 08:19:28;;;;;;;12.38;9.23;;;13.10;99.90;;;;;;6151296;23;20016;-92
2022/09/25 08:21:54;;;;;;;11.68;7.93;;;13.10;99.90;;;;;;6176146;23;20419;-93
2022/09/25 08:24:19;;;;;;;12.68;8.73;;;13.10;99.90;;;;;;6177720;23;20047;-91
2022/09/25 08:26:45;;;;;;;15.50;9.50;;;13.10;99.90;;;;;;6176206;23;20042;-89
2022/09/25 08:29:11;;;;;;;11.60;7.90;;;13.10;99.90;;;;;;6179308;23;20001;-92
2022/09/25 08:31:36;;;;;;;16.73;10.95;;;13.10;99.90;;;;;;6172839;23;20338;-89
2022/09/25 08:34:02;;;;;;;16.95;10.05;;;13.10;99.90;;;;;;6178062;23;20036;-93
2022/09/25 08:36:28;;;;;;;15.63;9.57;;;13.20;99.90;;;;;;6175927;23;20012;-93
2022/09/25 08:38:55;;;;;;;11.77;9.50;;;13.20;99.90;;;;;;6177913;23;20441;-92
2022/09/25 08:41:24;;;;;;;18.90;9.27;;;13.20;99.90;;;;;;6177417;22;20004;-92
2022/09/25 08:44:18;;;;;;;16.42;9.30;;;13.20;99.90;;;;;;6178061;22;20011;-92
2022/09/25 08:49:39;;;;;;;16.95;10.30;;;13.30;99.90;;;;;;6177725;23;20011;-91
2022/09/25 08:52:13;;;;;;;15.13;9.18;;;13.30;99.90;;;;;;6175863;22;20082;-90
2022/09/25 08:54:39;;;;;;;15.43;8.50;;;13.30;99.90;;;;;;6175058;23;20024;-94
2022/09/25 08:57:18;;;;;;;15.73;11.18;;;13.40;99.90;;;;;;6174232;22;20005;-91
2022/09/25 08:59:48;;;;;;;14.05;9.50;;;13.50;99.90;;;;;;6176341;23;20013;-93
2022/09/25 09:02:17;;;;;;;12.27;9.55;;;13.60;99.90;;;;;;6175476;22;19997;-91
2022/09/25 09:04:48;;;;;;;13.38;9.10;;;13.60;99.90;;;;;;6177931;23;20042;-92
2022/09/25 09:07:16;;;;;;;25.35;11.90;;;13.60;99.90;;;;;;6175993;22;20330;-92
2022/09/25 09:10:13;;;;;;;11.75;7.75;;;13.70;99.90;;;;;;6176592;23;20009;-92
2022/09/25 09:12:43;;;;;;;11.40;8.38;;;13.70;99.90;;;;;;6188546;23;20327;-92
2022/09/25 09:15:21;;;;;;;12.02;9.05;;;13.70;99.90;;;;;;6176952;23;19998;-91
2022/09/25 09:17:47;;;;;;;12.93;8.75;;;13.80;99.90;;;;;;6175834;22;20009;-91
2022/09/25 09:20:25;;;;;;;13.38;8.25;;;13.90;99.90;;;;;;6177397;22;20052;-93
2022/09/25 09:22:52;;;;;;;11.73;8.13;;;13.90;99.90;;;;;;6176573;23;20005;-93
2022/09/25 09:25:34;;;;;;;16.90;8.98;;;14.10;99.90;;;;;;6177551;23;20039;-92
2022/09/25 09:28:43;;;;;;;12.48;9.60;;;14.10;99.90;;;;;;6176929;22;20073;-87
2022/09/25 09:31:36;;;;;;;17.38;12.63;;;14.20;99.90;;;;;;6178088;23;20006;-91
2022/09/25 09:34:29;;;;;;;10.98;7.50;;;14.30;99.90;;;;;;6177216;22;20558;-93
2022/09/25 09:37:00;;;;;;;9.57;6.50;;;14.30;99.90;;;;;;6176713;23;20442;-93
2022/09/25 09:39:41;;;;;;;13.63;8.07;;;14.30;99.90;;;;;;6176777;23;20028;-92
2022/09/25 09:42:31;;;;;;;10.60;7.30;;;14.30;99.90;;;;;;6176030;23;19998;-88
2022/09/25 09:45:08;;;;;;;9.07;7.63;;;14.30;99.90;;;;;;6176312;22;20008;-91
2022/09/25 09:48:02;;;;;;;10.82;8.57;;;14.30;99.90;;;;;;6176614;22;20081;-91
2022/09/25 09:50:36;;;;;;;9.50;7.25;;;14.40;99.90;;;;;;6175437;22;20008;-90
2022/09/25 09:53:23;;;;;;;8.50;6.28;;;14.40;99.90;;;;;;6177167;22;20005;-91
2022/09/25 09:55:54;;;;;;;7.80;7.00;;;14.40;99.90;;;;;;6155142;22;20002;-90
2022/09/25 09:58:43;;;;;;;10.38;7.10;;;14.50;99.90;;;;;;6175355;23;20052;-92
2022/09/25 10:01:10;;;;;;;10.25;7.28;;;14.60;99.90;;;;;;6178109;23;20377;-90
2022/09/25 10:03:38;;;;;;;7.32;5.70;;;14.60;99.90;;;;;;6176788;23;20005;-90
2022/09/25 10:06:15;;;;;;;12.82;8.60;;;14.60;99.90;;;;;;6177483;23;20001;-91
2022/09/25 10:08:41;;;;;;;7.70;6.10;;;14.60;99.90;;;;;;6176733;22;20013;-90
2022/09/25 10:11:18;;;;;;;9.45;7.82;;;14.60;99.90;;;;;;6176080;23;20006;-91
2022/09/25 10:13:44;;;;;;;13.10;9.20;;;14.60;99.90;;;;;;6173445;23;20004;-92
2022/09/25 10:16:18;;;;;;;14.27;9.30;;;14.60;99.90;;;;;;6178528;23;20001;-91
2022/09/25 10:19:27;;;;;;;27.42;12.10;;;14.60;99.90;;;;;;6177342;23;20013;-91
2022/09/25 10:22:01;;;;;;;18.98;10.48;;;14.70;99.90;;;;;;6150790;23;20449;-88
2022/09/25 10:24:50;;;;;;;18.48;10.10;;;14.60;99.90;;;;;;6177528;23;20446;-91
2022/09/25 10:27:23;;;;;;;16.55;11.15;;;14.60;99.90;;;;;;6174074;23;20029;-91
2022/09/25 10:30:08;;;;;;;16.08;9.45;;;14.60;99.90;;;;;;6174630;23;20473;-92
2022/09/25 10:32:45;;;;;;;20.17;11.23;;;14.50;99.90;;;;;;6174105;23;20061;-89
2022/09/25 10:35:17;;;;;;;18.85;11.77;;;14.50;99.90;;;;;;6174508;23;20012;-90
2022/09/25 10:37:43;;;;;;;17.55;10.75;;;14.50;99.90;;;;;;6175138;23;20020;-91
2022/09/25 10:40:26;;;;;;;18.83;11.38;;;14.40;99.90;;;;;;6176844;23;20001;-90
2022/09/25 10:43:24;;;;;;;14.65;11.18;;;14.40;99.90;;;;;;6176545;23;20059;-91
2022/09/25 10:46:06;;;;;;;19.38;11.30;;;14.30;99.90;;;;;;6192338;23;20069;-89
2022/09/25 10:51:22;;;;;;;17.15;10.43;;;14.30;99.90;;;;;;6181359;23;20016;-90
2022/09/25 10:53:50;;;;;;;12.35;9.98;;;14.30;99.90;;;;;;6177776;23;20005;-91
2022/09/25 10:56:37;;;;;;;15.38;9.25;;;14.20;99.90;;;;;;6175708;22;20008;-90
2022/09/25 10:59:19;;;;;;;18.80;8.98;;;14.20;99.90;;;;;;6176412;22;20660;-89
2022/09/25 11:01:47;;;;;;;17.52;10.55;;;14.20;99.90;;;;;;6177457;23;20055;-92
2022/09/25 11:04:21;;;;;;;16.98;9.30;;;14.30;99.90;;;;;;6177114;23;20001;-92
2022/09/25 11:07:00;;;;;;;11.23;7.70;;;14.20;99.90;;;;;;6178307;22;20334;-92
2022/09/25 11:09:27;;;;;;;10.93;8.80;;;14.20;99.90;;;;;;6176434;22;20021;-90
2022/09/25 11:12:19;;;;;;;17.50;8.45;;;14.20;99.90;;;;;;6176287;23;19998;-85
2022/09/25 11:14:56;;;;;;;13.68;8.05;;;14.20;99.90;;;;;;6177813;22;20001;-88
2022/09/25 11:17:38;;;;;;;10.13;6.72;;;14.10;99.90;;;;;;6176569;22;20005;-90
2022/09/25 11:20:30;;;;;;;13.43;8.13;;;14.10;99.90;;;;;;6177678;23;20013;-90
2022/09/25 11:23:14;;;;;;;13.25;8.02;;;14.00;99.90;;;;;;6176134;23;20005;-92
2022/09/25 11:25:52;;;;;;;12.15;7.50;;;14.00;99.90;;;;;;6178409;23;20079;-92
2022/09/25 11:28:39;;;;;;;13.93;7.13;;;14.00;99.90;;;;;;6178990;22;20005;-91
2022/09/25 11:31:38;;;;;;;8.82;5.22;;;14.00;99.90;;;;;;6178335;23;20009;-90
2022/09/25 11:34:24;;;;;;;14.65;6.97;;;14.00;99.90;;;;;;6176724;22;20005;-90
2022/09/25 11:37:15;;;;;;;9.93;6.55;;;14.00;99.90;;;;;;6176571;22;20009;-91
2022/09/25 11:43:19;;;;;;;15.95;7.03;;;14.10;99.90;;;;;;6178349;23;20012;-90
2022/09/25 11:45:52;;;;;;;14.25;7.28;;;14.10;99.90;;;;;;6179261;22;20001;-90
2022/09/25 11:48:23;;;;;;;15.77;7.10;;;14.10;99.90;;;;;;6177393;22;20449;-88
2022/09/25 11:50:54;;;;;;;15.05;6.80;;;14.20;99.90;;;;;;6179292;23;20055;-92
2022/09/25 11:53:48;;;;;;;14.95;7.03;;;14.20;99.90;;;;;;6178085;22;20001;-89
2022/09/25 11:56:14;;;;;;;13.52;6.97;;;14.20;99.90;;;;;;6178567;22;20001;-91
2022/09/25 11:59:05;;;;;;;10.40;5.78;;;14.20;99.90;;;;;;6177631;22;20021;-91
2022/09/25 12:01:57;;;;;;;12.07;7.32;;;14.10;99.90;;;;;;6179008;22;20013;-91
2022/09/25 12:04:37;;;;;;;13.38;5.70;;;14.10;99.90;;;;;;6177974;23;20112;-93
2022/09/25 12:07:33;;;;;;;15.30;6.82;;;14.10;99.90;;;;;;6178691;22;20356;-85
2022/09/25 12:10:19;;;;;;;9.15;5.60;;;14.10;99.90;;;;;;6179058;22;20004;-88
2022/09/25 12:12:57;;;;;;;10.20;6.22;;;14.10;99.90;;;;;;6177890;23;20052;-90
2022/09/25 12:15:41;;;;;;;11.77;4.72;;;14.20;99.90;;;;;;6178635;22;20013;-88
2022/09/25 12:18:36;;;;;;;8.32;5.40;;;14.20;99.90;;;;;;6177563;22;20020;-92
2022/09/25 12:21:14;;;;;;;7.95;5.20;;;14.30;99.90;;;;;;6179079;23;20062;-94
2022/09/25 12:23:56;;;;;;;10.98;5.32;;;14.40;99.90;;;;;;6177578;23;20136;-89
2022/09/25 12:26:51;;;;;;;11.60;4.93;;;14.50;99.90;;;;;;6178544;23;20012;-91
2022/09/25 12:29:28;;;;;;;23.13;11.68;;;14.60;99.90;;;;;;6183656;22;20016;-89
2022/09/25 12:32:27;;;;;;;12.32;8.10;;;14.70;99.90;;;;;;6177502;23;20045;-90
2022/09/25 12:35:04;;;;;;;10.82;5.40;;;14.70;99.90;;;;;;6175360;23;20005;-90
2022/09/25 12:37:48;;;;;;;10.13;4.55;;;14.70;99.90;;;;;;6174366;22;19997;-91
2022/09/25 12:40:29;;;;;;;17.35;5.05;;;14.60;99.90;;;;;;6177003;23;20461;-88
2022/09/25 12:43:02;;;;;;;10.13;4.65;;;14.60;99.90;;;;;;6176668;23;20005;-90
2022/09/25 12:45:42;;;;;;;7.80;4.68;;;14.60;99.90;;;;;;6178439;23;20323;-90
2022/09/25 12:48:25;;;;;;;10.52;4.55;;;14.60;99.90;;;;;;6177171;23;20002;-91
2022/09/25 12:51:11;;;;;;;10.90;4.60;;;14.60;99.90;;;;;;6179523;23;20005;-93
2022/09/25 12:54:05;;;;;;;14.98;3.60;;;14.50;99.90;;;;;;6176973;22;20036;-92
2022/09/25 12:56:42;;;;;;;9.02;3.85;;;14.50;99.90;;;;;;6177874;22;20073;-92
2022/09/25 12:59:20;;;;;;;5.43;3.38;;;14.50;99.90;;;;;;6177052;22;20040;-91
2022/09/25 13:02:08;;;;;;;9.65;3.60;;;14.50;99.90;;;;;;6178144;23;20005;-91
2022/09/25 13:04:44;;;;;;;12.85;3.42;;;14.50;99.90;;;;;;6176661;23;20020;-92
2022/09/25 13:07:21;;;;;;;11.02;4.55;;;14.40;99.90;;;;;;6176075;23;20040;-93
2022/09/25 13:09:48;;;;;;;7.78;3.75;;;14.40;99.90;;;;;;6178890;23;20326;-94
2022/09/25 13:12:25;;;;;;;10.57;4.25;;;14.30;99.90;;;;;;6176794;23;20033;-91
2022/09/25 13:14:58;;;;;;;5.50;3.65;;;14.40;99.90;;;;;;6177933;23;20001;-89
2022/09/25 13:17:24;;;;;;;8.05;3.22;;;14.40;99.90;;;;;;6176643;22;20013;-93
2022/09/25 13:19:50;;;;;;;7.63;3.30;;;14.40;99.90;;;;;;6177997;23;20017;-91
2022/09/25 13:22:23;;;;;;;8.45;3.97;;;14.30;99.90;;;;;;6178105;22;20001;-92
2022/09/25 13:24:55;;;;;;;8.60;3.60;;;14.40;99.90;;;;;;6177425;22;20004;-94
2022/09/25 13:27:37;;;;;;;11.75;3.47;;;14.30;99.90;;;;;;6176835;22;20027;-91
2022/09/25 13:30:03;;;;;;;4.85;3.20;;;14.20;99.90;;;;;;6177488;23;20089;-89